sensor_id;sensor_type;location;lat;lon;timestamp;pressure;altitude;pressure_sealevel;temperature;humidity
72157;BME280;60035;52.122;5.406;2022-09-09T00:01:35;100953.84;;;15.39;97.94
72157;BME280;60035;52.122;5.406;2022-09-09T00:06:48;100940.78;;;15.42;98.09
72157;BME280;60035;52.122;5.406;2022-09-09T00:09:21;100943.34;;;15.42;98.21
72157;BME280;60035;52.122;5.406;2022-09-09T00:11:58;100935.00;;;15.37;97.96
72157;BME280;60035;52.122;5.406;2022-09-09T00:14:55;100938.44;;;15.38;98.31
72157;BME280;60035;52.122;5.406;2022-09-09T00:17:32;100930.78;;;15.36;98.33
72157;BME280;60035;52.122;5.406;2022-09-09T00:20:24;100923.84;;;15.37;98.48
72157;BME280;60035;52.122;5.406;2022-09-09T00:23:01;100922.94;;;15.38;98.47
72157;BME280;60035;52.122;5.406;2022-09-09T00:25:37;100925.44;;;15.39;98.34
72157;BME280;60035;52.122;5.406;2022-09-09T00:28:26;100927.13;;;15.40;98.60
72157;BME280;60035;52.122;5.406;2022-09-09T00:30:53;100923.03;;;15.36;98.45
72157;BME280;60035;52.122;5.406;2022-09-09T00:33:23;100930.16;;;15.31;98.55
72157;BME280;60035;52.122;5.406;2022-09-09T00:35:54;100942.28;;;15.29;98.72
72157;BME280;60035;52.122;5.406;2022-09-09T00:38:40;100939.06;;;15.24;98.57
72157;BME280;60035;52.122;5.406;2022-09-09T00:47:03;100919.19;;;15.08;99.01
72157;BME280;60035;52.122;5.406;2022-09-09T00:57:35;100932.88;;;14.91;99.21
72157;BME280;60035;52.122;5.406;2022-09-09T01:03:11;100932.00;;;14.91;99.29
72157;BME280;60035;52.122;5.406;2022-09-09T01:06:00;100935.63;;;14.87;99.52
72157;BME280;60035;52.122;5.406;2022-09-09T01:17:17;100938.31;;;14.66;100.00
72157;BME280;60035;52.122;5.406;2022-09-09T01:22:40;100932.38;;;14.64;100.00
72157;BME280;60035;52.122;5.406;2022-09-09T01:28:08;100919.59;;;14.61;100.00
72157;BME280;60035;52.122;5.406;2022-09-09T01:30:38;100918.91;;;14.57;100.00
72157;BME280;60035;52.122;5.406;2022-09-09T01:33:05;100918.19;;;14.54;100.00
72157;BME280;60035;52.122;5.406;2022-09-09T01:35:43;100908.84;;;14.51;100.00
72157;BME280;60035;52.122;5.406;2022-09-09T01:38:14;100912.47;;;14.47;100.00
72157;BME280;60035;52.122;5.406;2022-09-09T01:40:41;100910.06;;;14.44;100.00
72157;BME280;60035;52.122;5.406;2022-09-09T01:43:07;100922.03;;;14.45;100.00
72157;BME280;60035;52.122;5.406;2022-09-09T01:45:34;100916.97;;;14.43;100.00
72157;BME280;60035;52.122;5.406;2022-09-09T01:48:02;100921.50;;;14.37;100.00
72157;BME280;60035;52.122;5.406;2022-09-09T01:50:29;100923.28;;;14.36;100.00
72157;BME280;60035;52.122;5.406;2022-09-09T01:52:58;100922.38;;;14.37;100.00
72157;BME280;60035;52.122;5.406;2022-09-09T01:58:11;100922.56;;;14.32;100.00
72157;BME280;60035;52.122;5.406;2022-09-09T02:00:53;100913.28;;;14.28;100.00
72157;BME280;60035;52.122;5.406;2022-09-09T02:03:27;100913.22;;;14.30;100.00
72157;BME280;60035;52.122;5.406;2022-09-09T02:08:52;100900.63;;;14.24;100.00
72157;BME280;60035;52.122;5.406;2022-09-09T02:11:22;100896.53;;;14.20;100.00
72157;BME280;60035;52.122;5.406;2022-09-09T02:13:51;100899.09;;;14.20;100.00
72157;BME280;60035;52.122;5.406;2022-09-09T02:16:24;100905.16;;;14.19;100.00
72157;BME280;60035;52.122;5.406;2022-09-09T02:19:04;100897.53;;;14.15;100.00
72157;BME280;60035;52.122;5.406;2022-09-09T02:21:33;100900.97;;;14.16;100.00
72157;BME280;60035;52.122;5.406;2022-09-09T02:24:04;100900.19;;;14.14;100.00
72157;BME280;60035;52.122;5.406;2022-09-09T02:26:33;100892.69;;;14.09;100.00
72157;BME280;60035;52.122;5.406;2022-09-09T02:29:03;100890.94;;;14.10;100.00
72157;BME280;60035;52.122;5.406;2022-09-09T02:31:32;100890.22;;;14.06;100.00
72157;BME280;60035;52.122;5.406;2022-09-09T02:34:01;100898.97;;;14.02;100.00
72157;BME280;60035;52.122;5.406;2022-09-09T02:36:32;100898.97;;;14.02;100.00
72157;BME280;60035;52.122;5.406;2022-09-09T02:39:00;100897.31;;;14.01;100.00
72157;BME280;60035;52.122;5.406;2022-09-09T02:41:32;100894.75;;;14.01;100.00
72157;BME280;60035;52.122;5.406;2022-09-09T02:43:59;100901.69;;;13.99;100.00
72157;BME280;60035;52.122;5.406;2022-09-09T02:49:08;100895.84;;;13.95;100.00
72157;BME280;60035;52.122;5.406;2022-09-09T02:54:34;100891.66;;;13.93;100.00
72157;BME280;60035;52.122;5.406;2022-09-09T02:57:21;100900.97;;;13.95;100.00
72157;BME280;60035;52.122;5.406;2022-09-09T02:59:50;100890.75;;;13.94;100.00
72157;BME280;60035;52.122;5.406;2022-09-09T03:02:18;100890.91;;;13.91;100.00
72157;BME280;60035;52.122;5.406;2022-09-09T03:04:45;100892.63;;;13.90;100.00
72157;BME280;60035;52.122;5.406;2022-09-09T03:07:18;100898.69;;;13.89;100.00
72157;BME280;60035;52.122;5.406;2022-09-09T03:09:45;100890.09;;;13.89;100.00
72157;BME280;60035;52.122;5.406;2022-09-09T03:12:12;100892.81;;;13.86;100.00
72157;BME280;60035;52.122;5.406;2022-09-09T03:14:38;100885.34;;;13.79;100.00
72157;BME280;60035;52.122;5.406;2022-09-09T03:17:06;100882.91;;;13.76;100.00
72157;BME280;60035;52.122;5.406;2022-09-09T03:19:33;100892.34;;;13.76;100.00
72157;BME280;60035;52.122;5.406;2022-09-09T03:22:01;100897.50;;;13.76;100.00
72157;BME280;60035;52.122;5.406;2022-09-09T03:24:28;100892.44;;;13.74;100.00
72157;BME280;60035;52.122;5.406;2022-09-09T03:26:55;100889.94;;;13.73;100.00
72157;BME280;60035;52.122;5.406;2022-09-09T03:29:22;100885.75;;;13.70;100.00
72157;BME280;60035;52.122;5.406;2022-09-09T03:31:48;100893.59;;;13.67;100.00
72157;BME280;60035;52.122;5.406;2022-09-09T03:34:15;100888.44;;;13.67;100.00
72157;BME280;60035;52.122;5.406;2022-09-09T03:36:41;100882.53;;;13.65;100.00
72157;BME280;60035;52.122;5.406;2022-09-09T03:39:08;100888.59;;;13.64;100.00
72157;BME280;60035;52.122;5.406;2022-09-09T03:41:34;100891.16;;;13.64;100.00
72157;BME280;60035;52.122;5.406;2022-09-09T03:44:01;100888.59;;;13.64;100.00
72157;BME280;60035;52.122;5.406;2022-09-09T03:46:27;100893.09;;;13.59;100.00
72157;BME280;60035;52.122;5.406;2022-09-09T03:48:54;100887.28;;;13.54;100.00
72157;BME280;60035;52.122;5.406;2022-09-09T03:51:21;100886.50;;;13.52;100.00
72157;BME280;60035;52.122;5.406;2022-09-09T03:53:48;100882.16;;;13.54;100.00
72157;BME280;60035;52.122;5.406;2022-09-09T03:56:15;100880.47;;;13.53;100.00
72157;BME280;60035;52.122;5.406;2022-09-09T03:58:41;100886.50;;;13.52;100.00
72157;BME280;60035;52.122;5.406;2022-09-09T04:01:11;100878.78;;;13.52;100.00
72157;BME280;60035;52.122;5.406;2022-09-09T04:03:41;100885.69;;;13.51;100.00
72157;BME280;60035;52.122;5.406;2022-09-09T04:06:09;100882.31;;;13.49;100.00
72157;BME280;60035;52.122;5.406;2022-09-09T04:08:38;100875.38;;;13.51;100.00
72157;BME280;60035;52.122;5.406;2022-09-09T04:11:05;100884.81;;;13.50;100.00
72157;BME280;60035;52.122;5.406;2022-09-09T04:13:34;100884.91;;;13.49;100.00
72157;BME280;60035;52.122;5.406;2022-09-09T04:16:02;100880.72;;;13.46;100.00
72157;BME280;60035;52.122;5.406;2022-09-09T04:18:30;100882.38;;;13.47;100.00
72157;BME280;60035;52.122;5.406;2022-09-09T04:20:57;100881.59;;;13.45;100.00
72157;BME280;60035;52.122;5.406;2022-09-09T04:23:25;100879.75;;;13.49;100.00
72157;BME280;60035;52.122;5.406;2022-09-09T04:25:54;100870.31;;;13.49;100.00
72157;BME280;60035;52.122;5.406;2022-09-09T04:28:23;100864.38;;;13.47;100.00
72157;BME280;60035;52.122;5.406;2022-09-09T04:30:50;100865.16;;;13.49;100.00
72157;BME280;60035;52.122;5.406;2022-09-09T04:33:18;100871.06;;;13.52;100.00
72157;BME280;60035;52.122;5.406;2022-09-09T04:35:47;100875.19;;;13.56;100.00
72157;BME280;60035;52.122;5.406;2022-09-09T04:38:14;100873.25;;;13.61;100.00
72157;BME280;60035;52.122;5.406;2022-09-09T04:40:46;100868.00;;;13.64;100.00
72157;BME280;60035;52.122;5.406;2022-09-09T04:43:14;100866.91;;;13.70;100.00
72157;BME280;60035;52.122;5.406;2022-09-09T04:45:41;100860.78;;;13.72;100.00
72157;BME280;60035;52.122;5.406;2022-09-09T04:48:08;100862.41;;;13.75;100.00
72157;BME280;60035;52.122;5.406;2022-09-09T04:50:38;100861.53;;;13.74;100.00
72157;BME280;60035;52.122;5.406;2022-09-09T04:53:05;100861.53;;;13.74;100.00
72157;BME280;60035;52.122;5.406;2022-09-09T04:55:32;100851.31;;;13.73;100.00
72157;BME280;60035;52.122;5.406;2022-09-09T04:58:04;100839.25;;;13.75;100.00
72157;BME280;60035;52.122;5.406;2022-09-09T05:00:33;100850.44;;;13.74;100.00
72157;BME280;60035;52.122;5.406;2022-09-09T05:03:04;100860.78;;;13.72;100.00
72157;BME280;60035;52.122;5.406;2022-09-09T05:05:33;100861.69;;;13.71;100.00
72157;BME280;60035;52.122;5.406;2022-09-09T05:08:04;100866.84;;;13.71;100.00
72157;BME280;60035;52.122;5.406;2022-09-09T05:10:32;100866.84;;;13.71;100.00
72157;BME280;60035;52.122;5.406;2022-09-09T05:12:59;100869.47;;;13.70;100.00
72157;BME280;60035;52.122;5.406;2022-09-09T05:15:25;100863.44;;;13.71;100.00
72157;BME280;60035;52.122;5.406;2022-09-09T05:17:52;100859.13;;;13.71;100.00
72157;BME280;60035;52.122;5.406;2022-09-09T05:20:19;100855.75;;;13.69;100.00
72157;BME280;60035;52.122;5.406;2022-09-09T05:22:45;100858.34;;;13.69;100.00
72157;BME280;60035;52.122;5.406;2022-09-09T05:25:12;100854.94;;;13.69;100.00
72157;BME280;60035;52.122;5.406;2022-09-09T05:27:39;100853.25;;;13.68;100.00
72157;BME280;60035;52.122;5.406;2022-09-09T05:30:06;100845.53;;;13.68;100.00
72157;BME280;60035;52.122;5.406;2022-09-09T05:32:32;100847.16;;;13.70;100.00
72157;BME280;60035;52.122;5.406;2022-09-09T05:34:59;100833.38;;;13.71;100.00
72157;BME280;60035;52.122;5.406;2022-09-09T05:37:26;100834.22;;;13.72;100.00
72157;BME280;60035;52.122;5.406;2022-09-09T05:39:52;100837.63;;;13.72;100.00
72157;BME280;60035;52.122;5.406;2022-09-09T05:42:19;100838.38;;;13.74;100.00
72157;BME280;60035;52.122;5.406;2022-09-09T05:44:46;100845.13;;;13.77;100.00
72157;BME280;60035;52.122;5.406;2022-09-09T05:47:13;100840.72;;;13.80;100.00
72157;BME280;60035;52.122;5.406;2022-09-09T05:49:39;100846.69;;;13.81;100.00
72157;BME280;60035;52.122;5.406;2022-09-09T05:52:06;100844.06;;;13.82;100.00
72157;BME280;60035;52.122;5.406;2022-09-09T05:54:32;100835.31;;;13.87;100.00
72157;BME280;60035;52.122;5.406;2022-09-09T05:57:00;100840.31;;;13.90;100.00
72157;BME280;60035;52.122;5.406;2022-09-09T05:59:27;100847.81;;;13.94;100.00
72157;BME280;60035;52.122;5.406;2022-09-09T06:01:54;100846.72;;;14.00;100.00
72157;BME280;60035;52.122;5.406;2022-09-09T06:04:20;100852.59;;;14.04;100.00
72157;BME280;60035;52.122;5.406;2022-09-09T06:06:48;100862.66;;;14.08;100.00
72157;BME280;60035;52.122;5.406;2022-09-09T06:09:15;100858.22;;;14.12;100.00
72157;BME280;60035;52.122;5.406;2022-09-09T06:11:42;100854.53;;;14.18;100.00
72157;BME280;60035;52.122;5.406;2022-09-09T06:14:09;100849.13;;;14.24;100.00
72157;BME280;60035;52.122;5.406;2022-09-09T06:16:36;100854.75;;;14.32;100.00
72157;BME280;60035;52.122;5.406;2022-09-09T06:19:36;100849.19;;;14.41;100.00
72157;BME280;60035;52.122;5.406;2022-09-09T06:22:03;100848.00;;;14.48;100.00
72157;BME280;60035;52.122;5.406;2022-09-09T06:24:29;100846.13;;;14.52;100.00
72157;BME280;60035;52.122;5.406;2022-09-09T06:26:57;100846.66;;;14.59;100.00
72157;BME280;60035;52.122;5.406;2022-09-09T06:29:27;100841.41;;;14.62;100.00
72157;BME280;60035;52.122;5.406;2022-09-09T06:31:53;100836.94;;;14.65;100.00
72157;BME280;60035;52.122;5.406;2022-09-09T06:34:20;100845.19;;;14.74;100.00
72157;BME280;60035;52.122;5.406;2022-09-09T06:36:47;100843.69;;;14.87;100.00
72157;BME280;60035;52.122;5.406;2022-09-09T06:39:13;100835.28;;;15.01;100.00
72157;BME280;60035;52.122;5.406;2022-09-09T06:41:45;100838.72;;;15.19;100.00
72157;BME280;60035;52.122;5.406;2022-09-09T06:44:17;100836.41;;;15.30;100.00
72157;BME280;60035;52.122;5.406;2022-09-09T06:46:44;100838.53;;;15.40;100.00
72157;BME280;60035;52.122;5.406;2022-09-09T06:49:16;100838.41;;;15.43;100.00
72157;BME280;60035;52.122;5.406;2022-09-09T06:51:44;100833.69;;;15.51;100.00
72157;BME280;60035;52.122;5.406;2022-09-09T06:54:11;100829.81;;;15.60;100.00
72157;BME280;60035;52.122;5.406;2022-09-09T06:56:39;100836.50;;;15.64;100.00
72157;BME280;60035;52.122;5.406;2022-09-09T06:59:16;100835.50;;;15.66;100.00
72157;BME280;60035;52.122;5.406;2022-09-09T07:01:43;100832.59;;;15.73;100.00
72157;BME280;60035;52.122;5.406;2022-09-09T07:04:21;100832.50;;;15.74;100.00
72157;BME280;60035;52.122;5.406;2022-09-09T07:07:11;100829.66;;;15.80;100.00
72157;BME280;60035;52.122;5.406;2022-09-09T07:09:39;100835.19;;;15.90;100.00
72157;BME280;60035;52.122;5.406;2022-09-09T07:12:06;100832.13;;;15.99;100.00
72157;BME280;60035;52.122;5.406;2022-09-09T07:14:33;100836.72;;;16.10;100.00
72157;BME280;60035;52.122;5.406;2022-09-09T07:17:03;100835.47;;;16.18;100.00
72157;BME280;60035;52.122;5.406;2022-09-09T07:19:30;100837.91;;;16.21;100.00
72157;BME280;60035;52.122;5.406;2022-09-09T07:21:56;100846.38;;;16.23;100.00
72157;BME280;60035;52.122;5.406;2022-09-09T07:24:23;100834.63;;;16.17;100.00
72157;BME280;60035;52.122;5.406;2022-09-09T07:26:52;100839.72;;;16.19;100.00
72157;BME280;60035;52.122;5.406;2022-09-09T07:29:19;100838.81;;;16.20;100.00
72157;BME280;60035;52.122;5.406;2022-09-09T07:31:47;100842.22;;;16.20;100.00
72157;BME280;60035;52.122;5.406;2022-09-09T07:34:14;100846.66;;;16.18;100.00
72157;BME280;60035;52.122;5.406;2022-09-09T07:36:41;100854.41;;;16.18;100.00
72157;BME280;60035;52.122;5.406;2022-09-09T07:39:10;100852.97;;;16.28;100.00
72157;BME280;60035;52.122;5.406;2022-09-09T07:41:42;100860.72;;;16.44;100.00
72157;BME280;60035;52.122;5.406;2022-09-09T07:44:17;100848.47;;;16.64;100.00
72157;BME280;60035;52.122;5.406;2022-09-09T07:46:45;100845.72;;;16.83;100.00
72157;BME280;60035;52.122;5.406;2022-09-09T07:49:12;100849.13;;;16.99;100.00
72157;BME280;60035;52.122;5.406;2022-09-09T07:51:45;100847.41;;;17.00;100.00
72157;BME280;60035;52.122;5.406;2022-09-09T07:54:14;100847.94;;;17.05;100.00
72157;BME280;60035;52.122;5.406;2022-09-09T07:56:42;100841.44;;;17.14;100.00
72157;BME280;60035;52.122;5.406;2022-09-09T07:59:09;100842.44;;;17.11;100.00
72157;BME280;60035;52.122;5.406;2022-09-09T08:01:45;100838.00;;;17.13;100.00
72157;BME280;60035;52.122;5.406;2022-09-09T08:04:15;100845.59;;;17.17;100.00
72157;BME280;60035;52.122;5.406;2022-09-09T08:06:49;100852.06;;;17.09;100.00
72157;BME280;60035;52.122;5.406;2022-09-09T08:09:16;100853.69;;;17.10;100.00
72157;BME280;60035;52.122;5.406;2022-09-09T08:11:43;100847.94;;;17.05;100.00
72157;BME280;60035;52.122;5.406;2022-09-09T08:14:11;100852.56;;;17.00;100.00
72157;BME280;60035;52.122;5.406;2022-09-09T08:16:40;100851.06;;;16.96;100.00
72157;BME280;60035;52.122;5.406;2022-09-09T08:22:15;100845.34;;;16.89;100.00
72157;BME280;60035;52.122;5.406;2022-09-09T08:24:41;100861.75;;;16.90;100.00
72157;BME280;60035;52.122;5.406;2022-09-09T08:27:16;100859.09;;;16.91;100.00
72157;BME280;60035;52.122;5.406;2022-09-09T08:29:43;100863.47;;;16.89;100.00
72157;BME280;60035;52.122;5.406;2022-09-09T08:32:10;100865.47;;;16.84;100.00
72157;BME280;60035;52.122;5.406;2022-09-09T08:34:37;100860.75;;;16.76;100.00
72157;BME280;60035;52.122;5.406;2022-09-09T08:37:12;100874.69;;;16.74;100.00
72157;BME280;60035;52.122;5.406;2022-09-09T08:39:38;100869.59;;;16.72;100.00
72157;BME280;60035;52.122;5.406;2022-09-09T08:42:48;100870.25;;;16.76;100.00
72157;BME280;60035;52.122;5.406;2022-09-09T08:45:26;100872.69;;;16.79;100.00
72157;BME280;60035;52.122;5.406;2022-09-09T08:51:26;100877.41;;;16.87;100.00
72157;BME280;60035;52.122;5.406;2022-09-09T08:53:54;100875.44;;;16.92;100.00
72157;BME280;60035;52.122;5.406;2022-09-09T08:56:26;100879.50;;;16.96;100.00
72157;BME280;60035;52.122;5.406;2022-09-09T08:59:17;100875.84;;;17.00;100.00
72157;BME280;60035;52.122;5.406;2022-09-09T09:02:14;100882.34;;;17.07;100.00
72157;BME280;60035;52.122;5.406;2022-09-09T09:07:35;100878.84;;;17.08;100.00
72157;BME280;60035;52.122;5.406;2022-09-09T09:10:48;100876.66;;;17.17;100.00
72157;BME280;60035;52.122;5.406;2022-09-09T09:13:18;100887.19;;;17.13;100.00
72157;BME280;60035;52.122;5.406;2022-09-09T09:15:54;100884.50;;;17.15;100.00
72157;BME280;60035;52.122;5.406;2022-09-09T09:18:23;100886.41;;;17.11;100.00
72157;BME280;60035;52.122;5.406;2022-09-09T09:23:34;100887.94;;;16.99;100.00
72157;BME280;60035;52.122;5.406;2022-09-09T09:26:07;100887.13;;;16.99;100.00
72157;BME280;60035;52.122;5.406;2022-09-09T09:28:42;100890.63;;;16.98;100.00
72157;BME280;60035;52.122;5.406;2022-09-09T09:31:10;100883.25;;;17.06;100.00
72157;BME280;60035;52.122;5.406;2022-09-09T09:36:07;100884.16;;;17.05;100.00
72157;BME280;60035;52.122;5.406;2022-09-09T09:38:35;100888.28;;;17.09;100.00
72157;BME280;60035;52.122;5.406;2022-09-09T09:41:38;100887.19;;;17.13;100.00
72157;BME280;60035;52.122;5.406;2022-09-09T09:44:20;100890.59;;;17.14;100.00
72157;BME280;60035;52.122;5.406;2022-09-09T09:46:48;100888.19;;;17.11;100.00
72157;BME280;60035;52.122;5.406;2022-09-09T09:49:14;100886.22;;;17.14;100.00
72157;BME280;60035;52.122;5.406;2022-09-09T09:51:41;100891.16;;;17.19;100.00
72157;BME280;60035;52.122;5.406;2022-09-09T09:56:42;100891.13;;;17.35;100.00
72157;BME280;60035;52.122;5.406;2022-09-09T10:02:21;100888.34;;;17.38;100.00
72157;BME280;60035;52.122;5.406;2022-09-09T10:05:21;100880.66;;;17.37;100.00
72157;BME280;60035;52.122;5.406;2022-09-09T10:08:10;100883.94;;;17.40;100.00
72157;BME280;60035;52.122;5.406;2022-09-09T10:10:57;100880.53;;;17.40;100.00
72157;BME280;60035;52.122;5.406;2022-09-09T10:19:21;100885.13;;;17.35;100.00
72157;BME280;60035;52.122;5.406;2022-09-09T10:30:25;100889.28;;;17.37;100.00
72157;BME280;60035;52.122;5.406;2022-09-09T10:33:10;100898.53;;;17.41;100.00
72157;BME280;60035;52.122;5.406;2022-09-09T10:38:30;100896.09;;;17.38;100.00
72157;BME280;60035;52.122;5.406;2022-09-09T10:41:16;100891.94;;;17.36;100.00
72157;BME280;60035;52.122;5.406;2022-09-09T10:47:33;100893.22;;;17.28;100.00
72157;BME280;60035;52.122;5.406;2022-09-09T10:55:48;100903.38;;;17.01;100.00
72157;BME280;60035;52.122;5.406;2022-09-09T10:58:29;100892.69;;;17.07;100.00
72157;BME280;60035;52.122;5.406;2022-09-09T11:01:06;100891.34;;;17.16;100.00
72157;BME280;60035;52.122;5.406;2022-09-09T11:03:38;100886.50;;;17.40;100.00
72157;BME280;60035;52.122;5.406;2022-09-09T11:06:14;100888.31;;;17.69;100.00
72157;BME280;60035;52.122;5.406;2022-09-09T11:08:43;100882.91;;;17.88;100.00
72157;BME280;60035;52.122;5.406;2022-09-09T11:11:15;100891.81;;;17.98;100.00
72157;BME280;60035;52.122;5.406;2022-09-09T11:19:41;100877.78;;;18.44;100.00
72157;BME280;60035;52.122;5.406;2022-09-09T11:25:22;100866.59;;;18.43;100.00
72157;BME280;60035;52.122;5.406;2022-09-09T11:33:58;100868.50;;;18.12;100.00
72157;BME280;60035;52.122;5.406;2022-09-09T11:36:52;100862.94;;;18.19;100.00
72157;BME280;60035;52.122;5.406;2022-09-09T11:44:39;100861.34;;;18.16;100.00
72157;BME280;60035;52.122;5.406;2022-09-09T11:47:28;100859.31;;;18.21;100.00
72157;BME280;60035;52.122;5.406;2022-09-09T11:50:10;100855.72;;;18.24;100.00
72157;BME280;60035;52.122;5.406;2022-09-09T11:55:40;100867.56;;;18.13;100.00
72157;BME280;60035;52.122;5.406;2022-09-09T11:58:25;100862.09;;;18.18;100.00
72157;BME280;60035;52.122;5.406;2022-09-09T12:00:52;100865.91;;;18.12;100.00
72157;BME280;60035;52.122;5.406;2022-09-09T12:06:18;100867.50;;;18.01;100.00
72157;BME280;60035;52.122;5.406;2022-09-09T12:08:53;100872.56;;;18.02;100.00
72157;BME280;60035;52.122;5.406;2022-09-09T12:11:28;100866.53;;;18.02;100.00
72157;BME280;60035;52.122;5.406;2022-09-09T12:13:57;100867.28;;;18.04;100.00
72157;BME280;60035;52.122;5.406;2022-09-09T12:16:35;100866.63;;;18.00;100.00
72157;BME280;60035;52.122;5.406;2022-09-09T12:19:28;100869.47;;;17.81;100.00
72157;BME280;60035;52.122;5.406;2022-09-09T12:24:37;100873.59;;;17.55;100.00
72157;BME280;60035;52.122;5.406;2022-09-09T12:27:42;100863.03;;;17.43;100.00
72157;BME280;60035;52.122;5.406;2022-09-09T12:30:14;100871.38;;;17.48;100.00
72157;BME280;60035;52.122;5.406;2022-09-09T12:32:41;100869.72;;;17.62;100.00
72157;BME280;60035;52.122;5.406;2022-09-09T12:35:20;100865.78;;;17.71;100.00
72157;BME280;60035;52.122;5.406;2022-09-09T12:38:12;100867.00;;;17.79;100.00
72157;BME280;60035;52.122;5.406;2022-09-09T12:40:41;100867.94;;;17.93;100.00
72157;BME280;60035;52.122;5.406;2022-09-09T12:43:19;100871.00;;;18.14;100.00
72157;BME280;60035;52.122;5.406;2022-09-09T12:45:48;100858.41;;;18.22;100.00
72157;BME280;60035;52.122;5.406;2022-09-09T12:48:28;100853.47;;;18.32;100.00
72157;BME280;60035;52.122;5.406;2022-09-09T12:50:57;100854.41;;;18.31;100.00
72157;BME280;60035;52.122;5.406;2022-09-09T12:53:27;100847.81;;;18.25;100.00
72157;BME280;60035;52.122;5.406;2022-09-09T12:55:59;100851.63;;;18.20;100.00
72157;BME280;60035;52.122;5.406;2022-09-09T12:58:26;100846.16;;;18.24;100.00
72157;BME280;60035;52.122;5.406;2022-09-09T13:00:56;100852.09;;;18.26;100.00
72157;BME280;60035;52.122;5.406;2022-09-09T13:03:24;100849.84;;;18.35;100.00
72157;BME280;60035;52.122;5.406;2022-09-09T13:05:58;100854.09;;;18.50;100.00
72157;BME280;60035;52.122;5.406;2022-09-09T13:08:27;100848.38;;;18.72;100.00
72157;BME280;60035;52.122;5.406;2022-09-09T13:10:57;100850.25;;;18.97;100.00
72157;BME280;60035;52.122;5.406;2022-09-09T13:13:35;100852.88;;;19.23;100.00
72157;BME280;60035;52.122;5.406;2022-09-09T13:16:04;100856.13;;;19.53;100.00
72157;BME280;60035;52.122;5.406;2022-09-09T13:18:36;100851.78;;;19.53;100.00
72157;BME280;60035;52.122;5.406;2022-09-09T13:21:04;100858.44;;;19.31;100.00
72157;BME280;60035;52.122;5.406;2022-09-09T13:23:33;100860.75;;;19.09;100.00
72157;BME280;60035;52.122;5.406;2022-09-09T13:26:20;100849.34;;;18.98;100.00
72157;BME280;60035;52.122;5.406;2022-09-09T13:29:09;100852.53;;;18.89;100.00
72157;BME280;60035;52.122;5.406;2022-09-09T13:31:44;100848.03;;;18.91;100.00
72157;BME280;60035;52.122;5.406;2022-09-09T13:36:40;100843.22;;;18.85;100.00
72157;BME280;60035;52.122;5.406;2022-09-09T13:39:16;100846.31;;;18.77;100.00
72157;BME280;60035;52.122;5.406;2022-09-09T13:41:46;100838.28;;;18.68;100.00
72157;BME280;60035;52.122;5.406;2022-09-09T13:44:21;100842.53;;;18.69;100.00
72157;BME280;60035;52.122;5.406;2022-09-09T13:47:17;100834.47;;;18.73;100.00
72157;BME280;60035;52.122;5.406;2022-09-09T13:49:45;100850.38;;;18.81;100.00
72157;BME280;60035;52.122;5.406;2022-09-09T13:52:17;100843.22;;;18.85;100.00
72157;BME280;60035;52.122;5.406;2022-09-09T13:54:49;100845.19;;;18.81;100.00
72157;BME280;60035;52.122;5.406;2022-09-09T13:57:20;100842.88;;;18.77;100.00
72157;BME280;60035;52.122;5.406;2022-09-09T13:59:50;100838.63;;;18.76;100.00
72157;BME280;60035;52.122;5.406;2022-09-09T14:02:33;100847.44;;;18.73;100.00
72157;BME280;60035;52.122;5.406;2022-09-09T14:05:00;100845.13;;;18.69;100.00
72157;BME280;60035;52.122;5.406;2022-09-09T14:07:27;100851.25;;;18.68;100.00
72157;BME280;60035;52.122;5.406;2022-09-09T14:09:55;100838.09;;;18.71;100.00
72157;BME280;60035;52.122;5.406;2022-09-09T14:12:22;100842.44;;;18.70;100.00
72157;BME280;60035;52.122;5.406;2022-09-09T14:14:48;100843.56;;;18.66;100.00
72157;BME280;60035;52.122;5.406;2022-09-09T14:17:15;100843.56;;;18.66;100.00
72157;BME280;60035;52.122;5.406;2022-09-09T14:19:42;100835.91;;;18.64;100.00
72157;BME280;60035;52.122;5.406;2022-09-09T14:22:09;100834.97;;;18.65;100.00
72157;BME280;60035;52.122;5.406;2022-09-09T14:24:35;100832.06;;;18.70;100.00
72157;BME280;60035;52.122;5.406;2022-09-09T14:27:02;100833.75;;;18.71;100.00
72157;BME280;60035;52.122;5.406;2022-09-09T14:29:28;100828.56;;;18.71;100.00
72157;BME280;60035;52.122;5.406;2022-09-09T14:31:55;100835.69;;;18.68;100.00
72157;BME280;60035;52.122;5.406;2022-09-09T14:34:21;100838.28;;;18.68;100.00
72157;BME280;60035;52.122;5.406;2022-09-09T14:36:47;100838.38;;;18.66;100.00
72157;BME280;60035;52.122;5.406;2022-09-09T14:39:14;100828.22;;;18.63;100.00
72157;BME280;60035;52.122;5.406;2022-09-09T14:41:40;100843.22;;;18.58;100.00
72157;BME280;60035;52.122;5.406;2022-09-09T14:44:07;100828.91;;;18.52;100.00
72157;BME280;60035;52.122;5.406;2022-09-09T14:46:34;100831.53;;;18.38;100.00
72157;BME280;60035;52.122;5.406;2022-09-09T14:49:03;100830.78;;;18.36;100.00
72157;BME280;60035;52.122;5.406;2022-09-09T14:51:30;100830.34;;;18.29;100.00
72157;BME280;60035;52.122;5.406;2022-09-09T14:53:59;100827.44;;;18.34;100.00
72157;BME280;60035;52.122;5.406;2022-09-09T14:56:28;100824.91;;;18.46;100.00
72157;BME280;60035;52.122;5.406;2022-09-09T14:58:57;100823.31;;;18.58;100.00
72157;BME280;60035;52.122;5.406;2022-09-09T15:01:24;100824.19;;;18.72;100.00
72157;BME280;60035;52.122;5.406;2022-09-09T15:03:56;100825.47;;;18.79;100.00
72157;BME280;60035;52.122;5.406;2022-09-09T15:06:26;100823.03;;;18.90;100.00